createdAt,value
2024-05-09T00:00:45.992Z,19.89
2024-05-09T00:03:34.539Z,19.90
2024-05-09T00:06:03.050Z,19.90
2024-05-09T00:08:31.938Z,19.87
2024-05-09T00:11:00.183Z,19.88
2024-05-09T00:13:28.902Z,19.88
2024-05-09T00:15:56.973Z,19.82
2024-05-09T00:18:25.496Z,19.87
2024-05-09T00:20:53.760Z,19.87
2024-05-09T00:23:22.499Z,19.88
2024-05-09T00:25:50.671Z,19.89
2024-05-09T00:28:19.246Z,19.84
2024-05-09T00:30:47.293Z,19.88
2024-05-09T00:33:16.227Z,19.89
2024-05-09T00:35:44.661Z,19.88
2024-05-09T00:38:13.195Z,19.88
2024-05-09T00:40:43.154Z,19.88
2024-05-09T00:43:14.195Z,19.87
2024-05-09T00:45:43.975Z,19.88
2024-05-09T00:48:15.247Z,19.88
2024-05-09T00:50:45.861Z,19.84
2024-05-09T00:53:15.130Z,19.89
2024-05-09T00:55:43.468Z,19.87
2024-05-09T00:58:12.652Z,19.88
2024-05-09T01:00:41.684Z,19.89
2024-05-09T01:03:12.540Z,19.89
2024-05-09T01:05:43.010Z,19.87
2024-05-09T01:08:12.145Z,19.88
2024-05-09T01:10:43.911Z,19.88
2024-05-09T01:13:13.838Z,19.88
2024-05-09T01:15:42.037Z,19.87
2024-05-09T01:18:12.258Z,19.86
2024-05-09T01:20:44.205Z,19.87
2024-05-09T01:23:15.764Z,19.87
2024-05-09T01:25:45.977Z,19.86
2024-05-09T01:28:16.582Z,19.87
2024-05-09T01:30:44.752Z,19.86
2024-05-09T01:33:13.603Z,19.87
2024-05-09T01:35:42.983Z,19.87
2024-05-09T01:38:14.052Z,19.87
2024-05-09T01:40:43.181Z,19.88
2024-05-09T01:43:12.346Z,19.87
2024-05-09T01:45:41.092Z,19.88
2024-05-09T01:48:10.972Z,19.88
2024-05-09T01:50:42.187Z,19.88
2024-05-09T01:53:13.859Z,19.88
2024-05-09T01:55:43.066Z,19.89
2024-05-09T01:58:11.347Z,19.86
2024-05-09T02:00:43.453Z,19.88
2024-05-09T02:03:15.874Z,19.89
2024-05-09T02:05:48.387Z,19.86
2024-05-09T02:08:18.527Z,19.85
2024-05-09T02:10:48.456Z,19.86
2024-05-09T02:13:17.543Z,19.86
2024-05-09T02:15:46.237Z,19.88
2024-05-09T02:18:14.601Z,19.87
2024-05-09T02:20:43.956Z,19.85
2024-05-09T02:23:12.754Z,19.84
2024-05-09T02:25:41.604Z,19.86
2024-05-09T02:28:09.774Z,19.85
2024-05-09T02:30:41.215Z,19.84
2024-05-09T02:33:12.782Z,19.84
2024-05-09T02:35:43.940Z,19.84
2024-05-09T02:38:12.949Z,19.86
2024-05-09T02:40:41.867Z,19.86
2024-05-09T02:43:12.663Z,19.86
2024-05-09T02:45:41.947Z,19.86
2024-05-09T02:48:11.054Z,19.86
2024-05-09T02:50:44.644Z,19.86
2024-05-09T02:53:13.991Z,19.87
2024-05-09T02:55:43.350Z,19.85
2024-05-09T02:58:11.762Z,19.86
2024-05-09T03:00:42.249Z,19.85
2024-05-09T03:03:13.708Z,19.85
2024-05-09T03:05:45.550Z,19.85
2024-05-09T03:08:14.135Z,19.85
2024-05-09T03:10:43.023Z,19.85
2024-05-09T03:13:13.554Z,19.85
2024-05-09T03:15:43.812Z,19.85
2024-05-09T03:18:12.529Z,19.85
2024-05-09T03:20:41.510Z,19.86
2024-05-09T03:23:10.354Z,19.86
2024-05-09T03:25:39.151Z,19.85
2024-05-09T03:28:07.641Z,19.84
2024-05-09T03:30:41.295Z,19.83
2024-05-09T03:33:13.370Z,19.85
2024-05-09T03:35:45.431Z,19.83
2024-05-09T03:38:13.818Z,19.86
2024-05-09T03:40:45.844Z,19.85
2024-05-09T03:43:14.439Z,19.84
2024-05-09T03:45:43.216Z,19.83
2024-05-09T03:48:11.573Z,19.84
2024-05-09T03:50:40.376Z,19.85
2024-05-09T03:53:12.343Z,19.84
2024-05-09T03:55:41.068Z,19.85
2024-05-09T03:58:09.248Z,19.85
2024-05-09T04:00:39.604Z,19.85
2024-05-09T04:03:11.280Z,19.85
2024-05-09T04:05:42.858Z,19.84
2024-05-09T04:08:14.898Z,19.82
2024-05-09T04:10:43.645Z,19.84
2024-05-09T04:13:11.842Z,19.84
2024-05-09T04:15:40.375Z,19.82
2024-05-09T04:18:08.637Z,19.84
2024-05-09T04:20:40.116Z,19.84
2024-05-09T04:23:13.697Z,19.83
2024-05-09T04:25:45.083Z,19.84
2024-05-09T04:28:14.353Z,19.84
2024-05-09T04:30:43.669Z,19.84
2024-05-09T04:33:13.776Z,19.86
2024-05-09T04:35:43.745Z,19.84
2024-05-09T04:38:15.795Z,19.85
2024-05-09T04:40:44.721Z,19.85
2024-05-09T04:43:16.348Z,19.84
2024-05-09T04:45:45.021Z,19.85
2024-05-09T04:48:13.327Z,19.85
2024-05-09T04:50:42.224Z,19.84
2024-05-09T04:53:11.478Z,19.83
2024-05-09T04:55:40.705Z,19.83
2024-05-09T04:58:09.468Z,19.82
2024-05-09T05:00:41.316Z,19.84
2024-05-09T05:03:13.628Z,19.85
2024-05-09T05:05:46.160Z,19.86
2024-05-09T05:08:15.477Z,19.87
2024-05-09T05:10:44.553Z,19.85
2024-05-09T05:13:25.192Z,19.85
2024-05-09T05:15:56.759Z,19.86
2024-05-09T05:18:27.534Z,19.87
2024-05-09T05:20:57.012Z,19.83
2024-05-09T05:23:25.117Z,19.86
2024-05-09T05:25:55.688Z,19.83
2024-05-09T05:28:24.315Z,19.88
2024-05-09T05:30:52.947Z,19.88
2024-05-09T05:33:23.084Z,19.88
2024-05-09T05:35:51.929Z,19.87
2024-05-09T05:38:22.843Z,19.87
2024-05-09T05:40:53.366Z,19.89
2024-05-09T05:43:21.553Z,19.88
2024-05-09T05:45:49.982Z,19.89
2024-05-09T05:48:18.690Z,19.91
2024-05-09T05:50:47.541Z,19.91
2024-05-09T05:53:15.895Z,19.93
2024-05-09T05:55:44.785Z,19.92
2024-05-09T05:58:13.503Z,19.93
2024-05-09T06:00:42.669Z,19.92
2024-05-09T06:03:14.460Z,19.92
2024-05-09T06:05:44.406Z,19.94
2024-05-09T06:08:12.878Z,19.94
2024-05-09T06:10:42.101Z,19.95
2024-05-09T06:13:14.096Z,19.95
2024-05-09T06:15:43.813Z,19.95
2024-05-09T06:18:12.992Z,19.95
2024-05-09T06:20:43.656Z,19.96
2024-05-09T06:23:12.927Z,19.97
2024-05-09T06:25:42.705Z,19.97
2024-05-09T06:28:11.542Z,19.98
2024-05-09T06:30:42.543Z,19.97
2024-05-09T06:33:14.190Z,19.98
2024-05-09T06:35:44.931Z,19.99
2024-05-09T06:38:13.308Z,19.99
2024-05-09T06:40:43.933Z,20.00
2024-05-09T06:43:17.784Z,19.99
2024-05-09T06:45:53.099Z,19.99
2024-05-09T06:48:22.074Z,20.00
2024-05-09T06:50:51.218Z,20.03
2024-05-09T06:53:23.883Z,20.02
2024-05-09T06:55:52.951Z,20.04
2024-05-09T06:58:21.030Z,20.05
2024-05-09T07:00:49.509Z,20.04
2024-05-09T07:03:19.072Z,20.03
2024-05-09T07:05:49.378Z,20.04
2024-05-09T07:08:18.411Z,20.05
2024-05-09T07:10:47.062Z,20.06
2024-05-09T07:13:15.963Z,20.05
2024-05-09T07:15:44.548Z,20.08
2024-05-09T07:18:17.141Z,20.08
2024-05-09T07:20:47.752Z,20.09
2024-05-09T07:23:16.441Z,20.08
2024-05-09T07:25:45.447Z,20.07
2024-05-09T07:28:22.551Z,20.06
2024-05-09T07:30:50.870Z,20.07
2024-05-09T07:33:20.872Z,20.08
2024-05-09T07:35:50.751Z,20.07
2024-05-09T07:38:18.986Z,20.07
2024-05-09T07:40:47.740Z,20.09
2024-05-09T07:43:16.442Z,20.09
2024-05-09T07:45:51.964Z,20.08
2024-05-09T07:52:38.307Z,20.09
2024-05-09T07:53:49.463Z,20.09
2024-05-09T07:56:22.794Z,20.10
2024-05-09T07:58:53.041Z,20.11
2024-05-09T08:01:21.785Z,20.10
2024-05-09T08:03:50.979Z,20.09
2024-05-09T08:06:19.406Z,20.09
2024-05-09T08:08:47.856Z,20.10
2024-05-09T08:11:16.461Z,20.11
2024-05-09T08:13:44.430Z,20.12
2024-05-09T08:16:14.089Z,20.14
2024-05-09T08:18:42.984Z,20.14
2024-05-09T08:21:11.464Z,20.17
2024-05-09T08:23:39.491Z,20.21
2024-05-09T08:26:08.033Z,20.21
2024-05-09T08:28:36.140Z,20.22
2024-05-09T08:31:06.948Z,20.22
2024-05-09T08:33:35.771Z,20.22
2024-05-09T08:36:04.776Z,20.23
2024-05-09T08:38:32.868Z,20.24
2024-05-09T08:41:01.434Z,20.26
2024-05-09T08:43:29.988Z,20.25
2024-05-09T08:45:58.773Z,20.26
2024-05-09T08:48:27.369Z,20.28
2024-05-09T08:50:55.494Z,20.26
2024-05-09T08:53:24.151Z,20.28
2024-05-09T08:55:52.215Z,20.29
2024-05-09T08:58:20.756Z,20.30
2024-05-09T09:00:49.759Z,20.32
2024-05-09T09:03:19.694Z,20.32
2024-05-09T09:05:49.930Z,20.31
2024-05-09T09:08:17.942Z,20.30
2024-05-09T09:10:46.733Z,20.29
2024-05-09T09:13:14.948Z,20.30
2024-05-09T09:15:47.292Z,20.30
2024-05-09T09:18:16.348Z,20.29
2024-05-09T09:20:45.041Z,20.30
2024-05-09T09:23:13.117Z,20.29
2024-05-09T09:25:44.956Z,20.29
2024-05-09T09:28:13.101Z,20.32
2024-05-09T09:30:42.413Z,20.30
2024-05-09T09:33:10.974Z,20.30
2024-05-09T09:35:40.442Z,20.31
2024-05-09T09:38:10.826Z,20.31
2024-05-09T09:40:46.697Z,20.32
2024-05-09T09:43:21.452Z,20.32
2024-05-09T09:45:53.139Z,20.32
2024-05-09T09:48:23.060Z,20.32
2024-05-09T09:50:52.651Z,20.31
2024-05-09T09:53:21.967Z,20.32
2024-05-09T09:55:50.750Z,20.32
2024-05-09T09:58:19.019Z,20.31
2024-05-09T10:00:47.916Z,20.29
2024-05-09T10:03:16.168Z,20.29
2024-05-09T10:05:47.059Z,20.29
2024-05-09T10:08:16.138Z,20.31
2024-05-09T10:10:48.328Z,20.31
2024-05-09T10:13:16.713Z,20.34
2024-05-09T10:15:46.308Z,20.34
2024-05-09T10:18:15.044Z,20.33
2024-05-09T10:20:44.282Z,20.31
2024-05-09T10:23:28.321Z,20.32
2024-05-09T10:26:05.911Z,20.32
2024-05-09T10:28:38.109Z,20.34
2024-05-09T10:31:10.692Z,20.31
2024-05-09T10:33:39.141Z,20.33
2024-05-09T10:36:14.214Z,20.35
2024-05-09T10:38:43.262Z,20.35
2024-05-09T10:41:11.905Z,20.36
2024-05-09T10:43:41.357Z,20.38
2024-05-09T10:46:10.409Z,20.39
2024-05-09T10:48:38.932Z,20.38
2024-05-09T10:51:08.100Z,20.41
2024-05-09T10:53:42.821Z,20.40
2024-05-09T10:56:11.931Z,20.39
2024-05-09T10:58:40.020Z,20.37
2024-05-09T11:01:09.461Z,20.40
2024-05-09T11:03:38.413Z,20.38
2024-05-09T11:06:07.902Z,20.38
2024-05-09T11:08:35.967Z,20.52
2024-05-09T11:11:08.114Z,20.82
2024-05-09T11:13:40.276Z,20.80
2024-05-09T11:16:21.547Z,20.85
2024-05-09T11:18:53.426Z,20.85
2024-05-09T11:21:22.028Z,20.88
2024-05-09T11:23:50.178Z,20.81
2024-05-09T11:26:19.645Z,20.94
2024-05-09T11:28:47.830Z,20.82
2024-05-09T11:31:16.471Z,20.80
2024-05-09T11:33:47.935Z,20.82
2024-05-09T11:36:16.921Z,20.94
2024-05-09T11:38:45.173Z,20.97
2024-05-09T11:41:17.120Z,20.94
2024-05-09T11:43:45.111Z,20.99
2024-05-09T11:46:13.860Z,21.06
2024-05-09T11:48:42.083Z,21.03
2024-05-09T11:51:10.750Z,21.06
2024-05-09T11:53:40.015Z,21.06
2024-05-09T11:56:08.481Z,20.98
2024-05-09T11:58:37.157Z,20.92
2024-05-09T12:01:05.786Z,20.93
2024-05-09T12:03:35.079Z,20.92
2024-05-09T12:06:04.197Z,21.11
2024-05-09T12:08:32.380Z,21.00
2024-05-09T12:11:01.302Z,20.89
2024-05-09T12:13:29.828Z,21.05
2024-05-09T12:15:58.559Z,21.05
2024-05-09T12:18:26.793Z,21.10
2024-05-09T12:20:55.240Z,21.06
2024-05-09T12:23:23.350Z,21.09
2024-05-09T12:25:51.952Z,21.14
2024-05-09T12:28:20.661Z,21.11
2024-05-09T12:30:51.137Z,21.08
2024-05-09T12:33:21.422Z,21.12
2024-05-09T12:35:51.197Z,21.17
2024-05-09T12:38:19.381Z,21.11
2024-05-09T12:40:48.372Z,21.01
2024-05-09T12:43:17.396Z,20.96
2024-05-09T12:45:46.004Z,20.95
2024-05-09T12:48:14.352Z,21.01
2024-05-09T12:50:43.159Z,20.99
2024-05-09T12:53:11.341Z,20.98
2024-05-09T12:55:48.256Z,20.96
2024-05-09T12:58:22.734Z,21.12
2024-05-09T13:00:52.202Z,21.15
2024-05-09T13:03:20.952Z,21.11
2024-05-09T13:05:50.526Z,21.14
2024-05-09T13:08:18.743Z,21.18
2024-05-09T13:10:47.383Z,21.12
2024-05-09T13:13:15.576Z,21.01
2024-05-09T13:15:44.134Z,21.02
2024-05-09T13:18:12.411Z,21.04
2024-05-09T13:20:40.975Z,21.05
2024-05-09T13:23:09.055Z,21.06
2024-05-09T13:25:38.424Z,21.03
2024-05-09T13:28:07.593Z,21.08
2024-05-09T13:30:40.801Z,21.07
2024-05-09T13:33:12.214Z,21.12
2024-05-09T13:35:46.638Z,21.08
2024-05-09T13:38:21.436Z,21.13
2024-05-09T13:40:50.851Z,21.20
2024-05-09T13:43:19.402Z,21.31
2024-05-09T13:45:48.175Z,21.38
2024-05-09T13:48:16.531Z,21.30
2024-05-09T13:50:45.048Z,21.23
2024-05-09T13:53:13.187Z,21.36
2024-05-09T13:55:41.671Z,21.37
2024-05-09T13:58:10.055Z,21.34
2024-05-09T14:00:46.736Z,21.41
2024-05-09T14:03:19.136Z,21.45
2024-05-09T14:05:51.142Z,21.46
2024-05-09T14:08:22.629Z,21.47
2024-05-09T14:10:52.568Z,21.50
2024-05-09T14:13:20.881Z,21.61
2024-05-09T14:15:49.662Z,21.65
2024-05-09T14:18:17.971Z,21.64
2024-05-09T14:20:46.600Z,21.58
2024-05-09T14:23:15.068Z,21.47
2024-05-09T14:25:45.004Z,21.49
2024-05-09T14:28:14.060Z,21.56
2024-05-09T14:30:43.055Z,21.63
2024-05-09T14:33:11.783Z,21.70
2024-05-09T14:35:40.563Z,21.81
2024-05-09T14:38:09.198Z,21.72
2024-05-09T14:40:42.452Z,21.62
2024-05-09T14:43:12.883Z,21.52
2024-05-09T14:45:42.799Z,21.57
2024-05-09T14:48:15.425Z,21.62
2024-05-09T14:50:44.276Z,21.60
2024-05-09T14:53:13.461Z,21.69
2024-05-09T14:55:43.719Z,21.62
2024-05-09T14:58:13.237Z,21.75
2024-05-09T15:00:46.579Z,21.66
2024-05-09T15:03:19.229Z,21.61
2024-05-09T15:05:48.396Z,21.66
2024-05-09T15:08:16.962Z,21.72
2024-05-09T15:10:45.872Z,21.73
2024-05-09T15:13:16.438Z,21.73
2024-05-09T15:15:45.745Z,21.71
2024-05-09T15:18:14.474Z,21.71
2024-05-09T15:20:43.967Z,21.77
2024-05-09T15:23:13.733Z,21.67
2024-05-09T15:25:42.302Z,21.62
2024-05-09T15:28:10.647Z,21.63
2024-05-09T15:30:40.137Z,21.65
2024-05-09T15:33:09.548Z,21.64
2024-05-09T15:35:41.835Z,21.73
2024-05-09T15:38:10.050Z,21.66
2024-05-09T15:40:40.563Z,21.70
2024-05-09T15:43:11.106Z,21.74
2024-05-09T15:45:41.440Z,21.73
2024-05-09T15:48:10.835Z,21.66
2024-05-09T15:50:42.001Z,21.66
2024-05-09T15:53:13.264Z,21.84
2024-05-09T15:55:42.678Z,21.59
2024-05-09T15:58:11.076Z,21.57
2024-05-09T16:00:42.606Z,21.63
2024-05-09T16:03:14.162Z,21.68
2024-05-09T16:05:46.155Z,21.66
2024-05-09T16:08:15.478Z,21.63
2024-05-09T16:10:46.308Z,21.72
2024-05-09T16:13:15.936Z,21.67
2024-05-09T16:15:44.918Z,21.64
2024-05-09T16:18:13.088Z,21.62
2024-05-09T16:20:43.442Z,21.63
2024-05-09T16:23:13.082Z,21.67
2024-05-09T16:25:46.658Z,21.63
2024-05-09T16:28:14.945Z,21.60
2024-05-09T16:30:43.515Z,21.58
2024-05-09T16:33:14.443Z,21.60
2024-05-09T16:35:42.987Z,21.60
2024-05-09T16:38:11.038Z,21.58
2024-05-09T16:40:41.158Z,21.62
2024-05-09T16:43:10.586Z,21.61
2024-05-09T16:45:40.037Z,21.60
2024-05-09T16:48:08.650Z,21.58
2024-05-09T16:50:37.500Z,21.57
2024-05-09T16:53:06.549Z,21.56
2024-05-09T16:55:36.535Z,21.54
2024-05-09T16:58:07.083Z,21.58
2024-05-09T17:00:41.091Z,21.57
2024-05-09T17:03:13.738Z,21.52
2024-05-09T17:05:46.614Z,21.49
2024-05-09T17:08:15.746Z,21.58
2024-05-09T17:10:49.486Z,21.52
2024-05-09T17:13:19.021Z,21.50
2024-05-09T17:15:48.903Z,21.46
2024-05-09T17:18:17.161Z,21.47
2024-05-09T17:20:45.646Z,21.44
2024-05-09T17:23:14.422Z,21.44
2024-05-09T17:25:43.721Z,21.45
2024-05-09T17:28:12.222Z,21.42
2024-05-09T17:30:42.236Z,21.42
2024-05-09T17:33:12.452Z,21.38
2024-05-09T17:35:41.945Z,21.39
2024-05-09T17:38:10.237Z,21.38
2024-05-09T17:40:39.467Z,21.34
2024-05-09T17:43:09.921Z,21.37
2024-05-09T17:45:40.890Z,21.32
2024-05-09T17:48:10.940Z,21.31
2024-05-09T17:50:41.201Z,21.32
2024-05-09T17:53:11.147Z,21.27
2024-05-09T17:55:40.541Z,21.28
2024-05-09T17:58:09.032Z,21.26
2024-05-09T18:00:40.773Z,21.24
2024-05-09T18:03:12.461Z,21.21
2024-05-09T18:05:43.814Z,21.18
2024-05-09T18:08:13.483Z,21.17
2024-05-09T18:10:42.761Z,21.16
2024-05-09T18:13:11.980Z,21.15
2024-05-09T18:15:41.273Z,21.14
2024-05-09T18:18:10.976Z,21.15
2024-05-09T18:20:44.190Z,21.14
2024-05-09T18:23:16.510Z,21.10
2024-05-09T18:25:47.263Z,21.06
2024-05-09T18:28:16.968Z,21.05
2024-05-09T18:30:46.278Z,21.00
2024-05-09T18:33:14.919Z,21.04
2024-05-09T18:35:44.156Z,21.02
2024-05-09T18:38:12.248Z,21.02
2024-05-09T18:40:43.015Z,21.00
2024-05-09T18:43:13.362Z,20.97
2024-05-09T18:45:41.986Z,20.97
2024-05-09T18:48:10.464Z,20.97
2024-05-09T18:50:40.959Z,20.95
2024-05-09T18:53:11.390Z,20.95
2024-05-09T18:55:43.998Z,20.96
2024-05-09T18:58:12.245Z,20.93
2024-05-09T19:00:43.837Z,20.94
2024-05-09T19:03:14.764Z,20.91
2024-05-09T19:05:46.007Z,20.91
2024-05-09T19:08:15.551Z,20.89
2024-05-09T19:10:46.133Z,20.90
2024-05-09T19:13:15.100Z,20.90
2024-05-09T19:15:44.505Z,20.91
2024-05-09T19:18:14.030Z,20.93
2024-05-09T19:20:43.998Z,20.92
2024-05-09T19:23:12.510Z,20.91
2024-05-09T19:25:41.102Z,20.87
2024-05-09T19:28:09.432Z,20.88
2024-05-09T19:30:41.470Z,20.88
2024-05-09T19:33:13.278Z,20.95
2024-05-09T19:35:43.290Z,20.94
2024-05-09T19:38:11.955Z,20.92
2024-05-09T19:40:40.863Z,20.88
2024-05-09T19:43:09.297Z,20.91
2024-05-09T19:45:38.156Z,20.89
2024-05-09T19:48:06.831Z,20.89
2024-05-09T19:50:41.704Z,20.84
2024-05-09T19:53:15.374Z,20.92
2024-05-09T19:55:44.066Z,20.99
2024-05-09T19:58:13.062Z,21.03
2024-05-09T20:00:43.770Z,21.05
2024-05-09T20:03:14.284Z,21.06
2024-05-09T20:05:47.159Z,21.07
2024-05-09T20:08:15.715Z,21.08
2024-05-09T20:10:44.284Z,21.09
2024-05-09T20:13:13.773Z,21.09
2024-05-09T20:15:42.573Z,21.08
2024-05-09T20:18:10.882Z,21.09
2024-05-09T20:20:42.652Z,21.11
2024-05-09T20:23:13.004Z,21.11
2024-05-09T20:25:42.194Z,21.10
2024-05-09T20:28:10.987Z,21.10
2024-05-09T20:30:39.784Z,21.10
2024-05-09T20:33:09.108Z,21.10
2024-05-09T20:35:38.429Z,21.09
2024-05-09T20:38:06.992Z,21.10
2024-05-09T20:40:38.132Z,21.11
2024-05-09T20:43:10.153Z,21.09
2024-05-09T20:45:39.745Z,21.10
2024-05-09T20:48:09.475Z,21.11
2024-05-09T20:50:41.050Z,21.09
2024-05-09T20:53:12.904Z,21.09
2024-05-09T20:55:42.416Z,21.09
2024-05-09T20:58:11.261Z,21.10
2024-05-09T21:00:43.270Z,21.10
2024-05-09T21:03:16.120Z,21.10
2024-05-09T21:05:45.873Z,21.10
2024-05-09T21:08:14.781Z,21.09
2024-05-09T21:10:42.970Z,21.09
2024-05-09T21:13:11.655Z,21.08
2024-05-09T21:15:39.910Z,21.08
2024-05-09T21:18:08.688Z,21.10
2024-05-09T21:20:37.926Z,21.10
2024-05-09T21:23:06.801Z,21.08
2024-05-09T21:25:34.982Z,21.08
2024-05-09T21:28:03.763Z,21.09
2024-05-09T21:30:40.418Z,21.09
2024-05-09T21:33:13.645Z,21.10
2024-05-09T21:35:43.681Z,21.10
2024-05-09T21:38:14.195Z,21.06
2024-05-09T21:40:43.230Z,21.09
2024-05-09T21:43:12.216Z,21.10
2024-05-09T21:45:40.499Z,21.11
2024-05-09T21:48:09.420Z,21.11
2024-05-09T21:50:41.051Z,21.12
2024-05-09T21:53:12.055Z,21.11
2024-05-09T21:55:41.532Z,21.11
2024-05-09T21:58:10.695Z,21.11
2024-05-09T22:00:40.706Z,21.11
2024-05-09T22:03:10.803Z,21.10
2024-05-09T22:05:42.560Z,21.10
2024-05-09T22:08:11.324Z,21.11
2024-05-09T22:10:39.544Z,21.11
2024-05-09T22:13:08.992Z,21.10
2024-05-09T22:15:39.069Z,21.11
2024-05-09T22:18:10.547Z,21.10
2024-05-09T22:20:46.957Z,21.10
2024-05-09T22:23:16.092Z,21.11
2024-05-09T22:25:44.632Z,21.10
2024-05-09T22:28:15.767Z,21.10
2024-05-09T22:30:46.659Z,21.11
2024-05-09T22:33:16.390Z,21.11
2024-05-09T22:35:44.713Z,21.10
2024-05-09T22:38:13.359Z,21.11
2024-05-09T22:40:47.448Z,21.11
2024-05-09T22:43:23.695Z,21.11
2024-05-09T22:45:54.837Z,21.10
2024-05-09T22:48:24.871Z,21.11
2024-05-09T22:50:53.904Z,21.12
2024-05-09T22:53:26.246Z,21.11
2024-05-09T22:55:54.639Z,21.11
2024-05-09T22:58:24.036Z,21.12
2024-05-09T23:00:52.845Z,21.11
2024-05-09T23:03:22.925Z,21.12
2024-05-09T23:05:53.336Z,21.12
2024-05-09T23:08:21.961Z,21.13
2024-05-09T23:10:50.432Z,21.10
2024-05-09T23:13:19.256Z,21.11
2024-05-09T23:15:47.581Z,21.11
2024-05-09T23:18:16.187Z,21.11
2024-05-09T23:20:44.263Z,21.12
2024-05-09T23:23:12.823Z,21.11
2024-05-09T23:25:41.921Z,21.11
2024-05-09T23:28:11.089Z,21.11
2024-05-09T23:30:41.123Z,21.11
2024-05-09T23:33:11.486Z,21.10
2024-05-09T23:35:41.106Z,21.12
2024-05-09T23:38:09.620Z,21.11
2024-05-09T23:40:40.462Z,21.09
2024-05-09T23:43:11.037Z,21.10
2024-05-09T23:45:39.831Z,21.09
2024-05-09T23:48:08.964Z,21.09
2024-05-09T23:50:39.092Z,21.08
2024-05-09T23:53:09.925Z,21.06
2024-05-09T23:55:38.989Z,21.05
2024-05-09T23:58:08.521Z,21.05
